sensor_id;sensor_type;location;lat;lon;timestamp;P1;durP1;ratioP1;P2;durP2;ratioP2
14381;SDS011;7275;50.328;8.720;2022-12-17T00:00:23;5.40;;;4.13;;
14381;SDS011;7275;50.328;8.720;2022-12-17T00:03:08;4.33;;;3.40;;
14381;SDS011;7275;50.328;8.720;2022-12-17T00:05:55;5.17;;;3.80;;
14381;SDS011;7275;50.328;8.720;2022-12-17T00:08:40;5.00;;;3.80;;
14381;SDS011;7275;50.328;8.720;2022-12-17T00:11:25;6.03;;;4.27;;
14381;SDS011;7275;50.328;8.720;2022-12-17T00:14:12;5.13;;;3.73;;
14381;SDS011;7275;50.328;8.720;2022-12-17T00:16:57;4.10;;;3.23;;
14381;SDS011;7275;50.328;8.720;2022-12-17T00:19:42;4.37;;;3.00;;
14381;SDS011;7275;50.328;8.720;2022-12-17T00:22:28;5.17;;;3.67;;
14381;SDS011;7275;50.328;8.720;2022-12-17T00:25:13;4.53;;;3.70;;
14381;SDS011;7275;50.328;8.720;2022-12-17T00:27:58;4.63;;;3.53;;
14381;SDS011;7275;50.328;8.720;2022-12-17T00:30:50;5.57;;;4.37;;
14381;SDS011;7275;50.328;8.720;2022-12-17T00:33:35;5.57;;;3.80;;
14381;SDS011;7275;50.328;8.720;2022-12-17T00:36:21;4.70;;;3.63;;
14381;SDS011;7275;50.328;8.720;2022-12-17T00:39:06;4.87;;;3.20;;
14381;SDS011;7275;50.328;8.720;2022-12-17T00:41:52;4.20;;;3.47;;
14381;SDS011;7275;50.328;8.720;2022-12-17T00:44:37;4.57;;;3.80;;
14381;SDS011;7275;50.328;8.720;2022-12-17T00:47:24;4.57;;;3.77;;
14381;SDS011;7275;50.328;8.720;2022-12-17T00:50:09;5.10;;;4.00;;
14381;SDS011;7275;50.328;8.720;2022-12-17T00:52:54;6.30;;;4.77;;
14381;SDS011;7275;50.328;8.720;2022-12-17T00:55:39;6.63;;;5.47;;
14381;SDS011;7275;50.328;8.720;2022-12-17T00:58:24;5.70;;;4.63;;
14381;SDS011;7275;50.328;8.720;2022-12-17T01:01:10;7.03;;;5.40;;
14381;SDS011;7275;50.328;8.720;2022-12-17T01:03:57;7.80;;;4.80;;
14381;SDS011;7275;50.328;8.720;2022-12-17T01:06:41;5.47;;;4.10;;
14381;SDS011;7275;50.328;8.720;2022-12-17T01:09:27;6.27;;;4.53;;
14381;SDS011;7275;50.328;8.720;2022-12-17T01:12:12;6.20;;;4.60;;
14381;SDS011;7275;50.328;8.720;2022-12-17T01:14:57;4.90;;;4.13;;
14381;SDS011;7275;50.328;8.720;2022-12-17T01:17:42;5.87;;;4.13;;
14381;SDS011;7275;50.328;8.720;2022-12-17T01:20:29;5.97;;;4.33;;
14381;SDS011;7275;50.328;8.720;2022-12-17T01:23:14;5.70;;;4.40;;
14381;SDS011;7275;50.328;8.720;2022-12-17T01:26:00;5.83;;;4.33;;
14381;SDS011;7275;50.328;8.720;2022-12-17T01:28:45;5.03;;;3.97;;
14381;SDS011;7275;50.328;8.720;2022-12-17T01:31:30;5.40;;;3.73;;
14381;SDS011;7275;50.328;8.720;2022-12-17T01:34:16;5.17;;;3.80;;
14381;SDS011;7275;50.328;8.720;2022-12-17T01:37:02;4.47;;;3.20;;
14381;SDS011;7275;50.328;8.720;2022-12-17T01:39:48;4.33;;;3.53;;
14381;SDS011;7275;50.328;8.720;2022-12-17T01:42:36;4.13;;;3.30;;
14381;SDS011;7275;50.328;8.720;2022-12-17T01:45:22;4.60;;;3.37;;
14381;SDS011;7275;50.328;8.720;2022-12-17T01:48:09;3.87;;;2.77;;
14381;SDS011;7275;50.328;8.720;2022-12-17T01:51:00;3.93;;;2.77;;
14381;SDS011;7275;50.328;8.720;2022-12-17T01:53:49;4.33;;;2.60;;
14381;SDS011;7275;50.328;8.720;2022-12-17T01:56:38;3.17;;;2.63;;
14381;SDS011;7275;50.328;8.720;2022-12-17T01:59:27;5.07;;;3.00;;
14381;SDS011;7275;50.328;8.720;2022-12-17T02:02:20;4.20;;;2.80;;
14381;SDS011;7275;50.328;8.720;2022-12-17T02:05:05;4.17;;;3.13;;
14381;SDS011;7275;50.328;8.720;2022-12-17T02:08:04;3.00;;;2.70;;
14381;SDS011;7275;50.328;8.720;2022-12-17T02:10:59;3.07;;;2.77;;
14381;SDS011;7275;50.328;8.720;2022-12-17T02:13:49;4.63;;;3.37;;
14381;SDS011;7275;50.328;8.720;2022-12-17T02:16:45;4.50;;;3.27;;
14381;SDS011;7275;50.328;8.720;2022-12-17T02:19:37;4.13;;;3.30;;
14381;SDS011;7275;50.328;8.720;2022-12-17T02:22:33;5.70;;;3.37;;
14381;SDS011;7275;50.328;8.720;2022-12-17T02:25:30;4.53;;;3.50;;
14381;SDS011;7275;50.328;8.720;2022-12-17T02:28:22;4.33;;;3.80;;
14381;SDS011;7275;50.328;8.720;2022-12-17T02:31:09;5.87;;;4.20;;
14381;SDS011;7275;50.328;8.720;2022-12-17T02:33:55;4.33;;;3.60;;
14381;SDS011;7275;50.328;8.720;2022-12-17T02:36:41;5.37;;;3.77;;
14381;SDS011;7275;50.328;8.720;2022-12-17T02:39:25;4.50;;;3.57;;
14381;SDS011;7275;50.328;8.720;2022-12-17T02:42:10;5.00;;;3.77;;
14381;SDS011;7275;50.328;8.720;2022-12-17T02:44:57;5.37;;;3.83;;
14381;SDS011;7275;50.328;8.720;2022-12-17T02:47:42;5.20;;;3.83;;
14381;SDS011;7275;50.328;8.720;2022-12-17T02:50:28;4.97;;;3.67;;
14381;SDS011;7275;50.328;8.720;2022-12-17T02:53:14;6.30;;;4.20;;
14381;SDS011;7275;50.328;8.720;2022-12-17T02:56:00;5.43;;;3.73;;
14381;SDS011;7275;50.328;8.720;2022-12-17T02:58:45;5.67;;;4.03;;
14381;SDS011;7275;50.328;8.720;2022-12-17T03:01:32;4.70;;;3.50;;
14381;SDS011;7275;50.328;8.720;2022-12-17T03:04:32;3.97;;;3.23;;
14381;SDS011;7275;50.328;8.720;2022-12-17T03:07:17;4.83;;;3.33;;
14381;SDS011;7275;50.328;8.720;2022-12-17T03:17:32;4.03;;;2.87;;
14381;SDS011;7275;50.328;8.720;2022-12-17T03:20:17;3.83;;;2.87;;
14381;SDS011;7275;50.328;8.720;2022-12-17T03:23:02;4.97;;;3.40;;
14381;SDS011;7275;50.328;8.720;2022-12-17T03:25:49;4.63;;;3.37;;
14381;SDS011;7275;50.328;8.720;2022-12-17T03:28:34;5.17;;;3.57;;
14381;SDS011;7275;50.328;8.720;2022-12-17T03:31:19;4.47;;;3.30;;
14381;SDS011;7275;50.328;8.720;2022-12-17T03:34:06;4.23;;;3.27;;
14381;SDS011;7275;50.328;8.720;2022-12-17T03:36:59;4.00;;;2.93;;
14381;SDS011;7275;50.328;8.720;2022-12-17T03:39:45;5.90;;;3.43;;
14381;SDS011;7275;50.328;8.720;2022-12-17T03:42:30;5.13;;;3.63;;
14381;SDS011;7275;50.328;8.720;2022-12-17T03:45:15;4.40;;;3.30;;
14381;SDS011;7275;50.328;8.720;2022-12-17T03:48:04;4.40;;;3.50;;
14381;SDS011;7275;50.328;8.720;2022-12-17T03:50:52;4.07;;;2.97;;
14381;SDS011;7275;50.328;8.720;2022-12-17T03:53:38;4.53;;;3.17;;
14381;SDS011;7275;50.328;8.720;2022-12-17T03:56:23;4.43;;;3.27;;
14381;SDS011;7275;50.328;8.720;2022-12-17T03:59:08;4.10;;;2.87;;
14381;SDS011;7275;50.328;8.720;2022-12-17T04:01:53;4.53;;;3.13;;
14381;SDS011;7275;50.328;8.720;2022-12-17T04:04:38;3.57;;;2.83;;
14381;SDS011;7275;50.328;8.720;2022-12-17T04:07:25;4.57;;;3.23;;
14381;SDS011;7275;50.328;8.720;2022-12-17T04:10:10;4.27;;;3.20;;
14381;SDS011;7275;50.328;8.720;2022-12-17T04:12:55;4.57;;;3.50;;
14381;SDS011;7275;50.328;8.720;2022-12-17T04:15:40;5.03;;;3.33;;
14381;SDS011;7275;50.328;8.720;2022-12-17T04:18:26;3.80;;;2.83;;
14381;SDS011;7275;50.328;8.720;2022-12-17T04:21:11;4.60;;;3.30;;
14381;SDS011;7275;50.328;8.720;2022-12-17T04:23:57;4.40;;;2.97;;
14381;SDS011;7275;50.328;8.720;2022-12-17T04:26:43;3.70;;;2.93;;
14381;SDS011;7275;50.328;8.720;2022-12-17T04:29:28;5.57;;;3.43;;
14381;SDS011;7275;50.328;8.720;2022-12-17T04:32:13;3.80;;;2.73;;
14381;SDS011;7275;50.328;8.720;2022-12-17T04:35:00;4.97;;;3.40;;
14381;SDS011;7275;50.328;8.720;2022-12-17T04:37:46;3.67;;;2.87;;
14381;SDS011;7275;50.328;8.720;2022-12-17T04:40:32;4.63;;;3.20;;
14381;SDS011;7275;50.328;8.720;2022-12-17T04:43:17;3.53;;;2.77;;
14381;SDS011;7275;50.328;8.720;2022-12-17T04:46:04;3.80;;;2.70;;
14381;SDS011;7275;50.328;8.720;2022-12-17T04:48:49;3.67;;;2.97;;
14381;SDS011;7275;50.328;8.720;2022-12-17T04:51:34;3.70;;;2.90;;
14381;SDS011;7275;50.328;8.720;2022-12-17T04:54:19;4.17;;;3.03;;
14381;SDS011;7275;50.328;8.720;2022-12-17T04:57:06;5.00;;;3.27;;
14381;SDS011;7275;50.328;8.720;2022-12-17T04:59:51;5.03;;;3.27;;
14381;SDS011;7275;50.328;8.720;2022-12-17T05:02:37;4.60;;;3.50;;
14381;SDS011;7275;50.328;8.720;2022-12-17T05:05:22;6.03;;;3.40;;
14381;SDS011;7275;50.328;8.720;2022-12-17T05:08:07;5.00;;;3.50;;
14381;SDS011;7275;50.328;8.720;2022-12-17T05:10:52;5.53;;;3.80;;
14381;SDS011;7275;50.328;8.720;2022-12-17T05:13:39;5.70;;;4.03;;
14381;SDS011;7275;50.328;8.720;2022-12-17T05:16:24;7.30;;;4.87;;
14381;SDS011;7275;50.328;8.720;2022-12-17T05:19:09;7.17;;;4.83;;
14381;SDS011;7275;50.328;8.720;2022-12-17T05:21:55;8.43;;;4.97;;
14381;SDS011;7275;50.328;8.720;2022-12-17T05:24:40;6.80;;;5.13;;
14381;SDS011;7275;50.328;8.720;2022-12-17T05:27:25;8.63;;;5.77;;
14381;SDS011;7275;50.328;8.720;2022-12-17T05:30:12;7.77;;;5.77;;
14381;SDS011;7275;50.328;8.720;2022-12-17T05:32:57;9.70;;;5.70;;
14381;SDS011;7275;50.328;8.720;2022-12-17T05:35:43;9.70;;;5.43;;
14381;SDS011;7275;50.328;8.720;2022-12-17T05:38:29;10.23;;;6.13;;
14381;SDS011;7275;50.328;8.720;2022-12-17T05:41:14;8.87;;;5.73;;
14381;SDS011;7275;50.328;8.720;2022-12-17T05:43:59;9.47;;;5.50;;
14381;SDS011;7275;50.328;8.720;2022-12-17T05:46:46;9.37;;;6.10;;
14381;SDS011;7275;50.328;8.720;2022-12-17T05:49:31;10.70;;;7.23;;
14381;SDS011;7275;50.328;8.720;2022-12-17T05:52:17;11.40;;;7.40;;
14381;SDS011;7275;50.328;8.720;2022-12-17T05:55:02;11.30;;;7.03;;
14381;SDS011;7275;50.328;8.720;2022-12-17T05:57:46;9.73;;;6.17;;
14381;SDS011;7275;50.328;8.720;2022-12-17T06:00:40;10.07;;;6.37;;
14381;SDS011;7275;50.328;8.720;2022-12-17T06:03:26;12.80;;;7.20;;
14381;SDS011;7275;50.328;8.720;2022-12-17T06:06:23;8.73;;;5.70;;
14381;SDS011;7275;50.328;8.720;2022-12-17T06:09:08;9.83;;;6.47;;
14381;SDS011;7275;50.328;8.720;2022-12-17T06:11:53;11.47;;;6.60;;
14381;SDS011;7275;50.328;8.720;2022-12-17T06:14:38;11.40;;;6.80;;
14381;SDS011;7275;50.328;8.720;2022-12-17T06:17:23;11.03;;;6.80;;
14381;SDS011;7275;50.328;8.720;2022-12-17T06:20:10;12.80;;;7.07;;
14381;SDS011;7275;50.328;8.720;2022-12-17T06:22:59;14.17;;;7.20;;
14381;SDS011;7275;50.328;8.720;2022-12-17T06:25:44;13.30;;;6.70;;
14381;SDS011;7275;50.328;8.720;2022-12-17T06:28:37;12.93;;;7.07;;
14381;SDS011;7275;50.328;8.720;2022-12-17T06:31:22;11.23;;;6.53;;
14381;SDS011;7275;50.328;8.720;2022-12-17T06:34:08;11.43;;;6.73;;
14381;SDS011;7275;50.328;8.720;2022-12-17T06:36:54;10.53;;;6.40;;
14381;SDS011;7275;50.328;8.720;2022-12-17T06:39:40;10.97;;;6.60;;
14381;SDS011;7275;50.328;8.720;2022-12-17T06:42:25;11.03;;;6.37;;
14381;SDS011;7275;50.328;8.720;2022-12-17T06:45:10;10.00;;;6.00;;
14381;SDS011;7275;50.328;8.720;2022-12-17T06:47:59;12.00;;;6.50;;
14381;SDS011;7275;50.328;8.720;2022-12-17T06:50:45;9.93;;;6.27;;
14381;SDS011;7275;50.328;8.720;2022-12-17T06:53:31;10.10;;;6.17;;
14381;SDS011;7275;50.328;8.720;2022-12-17T06:56:16;10.73;;;6.40;;
14381;SDS011;7275;50.328;8.720;2022-12-17T06:59:02;10.10;;;6.10;;
14381;SDS011;7275;50.328;8.720;2022-12-17T07:01:47;9.50;;;6.03;;
14381;SDS011;7275;50.328;8.720;2022-12-17T07:04:32;8.87;;;5.90;;
14381;SDS011;7275;50.328;8.720;2022-12-17T07:07:17;9.17;;;6.00;;
14381;SDS011;7275;50.328;8.720;2022-12-17T07:10:04;11.13;;;6.33;;
14381;SDS011;7275;50.328;8.720;2022-12-17T07:12:50;8.07;;;5.83;;
14381;SDS011;7275;50.328;8.720;2022-12-17T07:15:35;7.13;;;5.00;;
14381;SDS011;7275;50.328;8.720;2022-12-17T07:18:20;9.33;;;5.80;;
14381;SDS011;7275;50.328;8.720;2022-12-17T07:21:05;7.53;;;5.60;;
14381;SDS011;7275;50.328;8.720;2022-12-17T07:23:51;7.77;;;5.80;;
14381;SDS011;7275;50.328;8.720;2022-12-17T07:26:37;8.53;;;5.70;;
14381;SDS011;7275;50.328;8.720;2022-12-17T07:29:23;9.23;;;6.47;;
14381;SDS011;7275;50.328;8.720;2022-12-17T07:32:08;9.50;;;6.70;;
14381;SDS011;7275;50.328;8.720;2022-12-17T07:34:54;7.47;;;5.27;;
14381;SDS011;7275;50.328;8.720;2022-12-17T07:37:39;8.87;;;5.80;;
14381;SDS011;7275;50.328;8.720;2022-12-17T07:40:24;9.47;;;6.43;;
14381;SDS011;7275;50.328;8.720;2022-12-17T07:43:11;10.47;;;7.03;;
14381;SDS011;7275;50.328;8.720;2022-12-17T07:46:00;8.63;;;6.50;;
14381;SDS011;7275;50.328;8.720;2022-12-17T07:48:45;9.63;;;6.30;;
14381;SDS011;7275;50.328;8.720;2022-12-17T07:51:31;9.63;;;6.43;;
14381;SDS011;7275;50.328;8.720;2022-12-17T07:54:16;9.87;;;6.10;;
14381;SDS011;7275;50.328;8.720;2022-12-17T07:57:02;9.63;;;6.37;;
14381;SDS011;7275;50.328;8.720;2022-12-17T07:59:48;9.40;;;6.33;;
14381;SDS011;7275;50.328;8.720;2022-12-17T08:02:34;8.57;;;5.67;;
14381;SDS011;7275;50.328;8.720;2022-12-17T08:05:19;9.30;;;6.13;;
14381;SDS011;7275;50.328;8.720;2022-12-17T08:08:07;8.30;;;5.87;;
14381;SDS011;7275;50.328;8.720;2022-12-17T08:10:52;8.97;;;5.93;;
14381;SDS011;7275;50.328;8.720;2022-12-17T08:13:38;8.23;;;5.67;;
14381;SDS011;7275;50.328;8.720;2022-12-17T08:16:24;9.23;;;6.20;;
14381;SDS011;7275;50.328;8.720;2022-12-17T08:19:13;9.43;;;6.00;;
14381;SDS011;7275;50.328;8.720;2022-12-17T08:21:58;9.30;;;5.87;;
14381;SDS011;7275;50.328;8.720;2022-12-17T08:24:43;8.10;;;5.37;;
14381;SDS011;7275;50.328;8.720;2022-12-17T08:27:28;7.43;;;5.23;;
14381;SDS011;7275;50.328;8.720;2022-12-17T08:30:14;7.40;;;5.00;;
14381;SDS011;7275;50.328;8.720;2022-12-17T08:33:02;8.27;;;5.40;;
14381;SDS011;7275;50.328;8.720;2022-12-17T08:35:51;8.20;;;5.90;;
14381;SDS011;7275;50.328;8.720;2022-12-17T08:38:37;7.10;;;4.40;;
14381;SDS011;7275;50.328;8.720;2022-12-17T08:41:22;6.10;;;4.50;;
14381;SDS011;7275;50.328;8.720;2022-12-17T08:44:07;6.83;;;4.57;;
14381;SDS011;7275;50.328;8.720;2022-12-17T08:46:53;6.57;;;4.50;;
14381;SDS011;7275;50.328;8.720;2022-12-17T08:49:39;7.13;;;4.63;;
14381;SDS011;7275;50.328;8.720;2022-12-17T08:52:25;7.80;;;5.13;;
14381;SDS011;7275;50.328;8.720;2022-12-17T08:55:10;6.87;;;5.20;;
14381;SDS011;7275;50.328;8.720;2022-12-17T08:57:52;7.10;;;4.70;;
14381;SDS011;7275;50.328;8.720;2022-12-17T09:00:37;7.20;;;4.97;;
14381;SDS011;7275;50.328;8.720;2022-12-17T09:03:23;7.50;;;5.60;;
14381;SDS011;7275;50.328;8.720;2022-12-17T09:06:10;8.17;;;5.20;;
14381;SDS011;7275;50.328;8.720;2022-12-17T09:09:01;9.23;;;5.97;;
14381;SDS011;7275;50.328;8.720;2022-12-17T09:11:46;7.30;;;5.00;;
14381;SDS011;7275;50.328;8.720;2022-12-17T09:14:31;8.73;;;5.77;;
14381;SDS011;7275;50.328;8.720;2022-12-17T09:17:16;7.77;;;5.10;;
14381;SDS011;7275;50.328;8.720;2022-12-17T09:20:02;8.40;;;5.60;;
14381;SDS011;7275;50.328;8.720;2022-12-17T09:22:55;7.23;;;4.83;;
14381;SDS011;7275;50.328;8.720;2022-12-17T09:25:40;8.37;;;5.57;;
14381;SDS011;7275;50.328;8.720;2022-12-17T09:28:26;7.90;;;5.73;;
14381;SDS011;7275;50.328;8.720;2022-12-17T09:31:11;9.33;;;6.77;;
14381;SDS011;7275;50.328;8.720;2022-12-17T09:34:02;11.50;;;7.03;;
14381;SDS011;7275;50.328;8.720;2022-12-17T09:36:47;10.00;;;6.70;;
14381;SDS011;7275;50.328;8.720;2022-12-17T09:39:34;9.27;;;6.23;;
14381;SDS011;7275;50.328;8.720;2022-12-17T09:42:22;9.13;;;6.00;;
14381;SDS011;7275;50.328;8.720;2022-12-17T09:45:26;8.27;;;6.37;;
14381;SDS011;7275;50.328;8.720;2022-12-17T09:48:18;9.23;;;6.47;;
14381;SDS011;7275;50.328;8.720;2022-12-17T09:51:15;9.33;;;6.37;;
14381;SDS011;7275;50.328;8.720;2022-12-17T09:54:09;9.63;;;6.37;;
14381;SDS011;7275;50.328;8.720;2022-12-17T09:57:04;9.73;;;6.37;;
14381;SDS011;7275;50.328;8.720;2022-12-17T09:59:52;9.47;;;6.47;;
14381;SDS011;7275;50.328;8.720;2022-12-17T10:02:37;9.53;;;6.80;;
14381;SDS011;7275;50.328;8.720;2022-12-17T10:05:24;11.10;;;7.50;;
14381;SDS011;7275;50.328;8.720;2022-12-17T10:08:12;10.30;;;6.87;;
14381;SDS011;7275;50.328;8.720;2022-12-17T10:11:00;8.37;;;6.23;;
14381;SDS011;7275;50.328;8.720;2022-12-17T10:14:01;10.43;;;7.03;;
14381;SDS011;7275;50.328;8.720;2022-12-17T10:16:47;9.57;;;6.57;;
14381;SDS011;7275;50.328;8.720;2022-12-17T10:19:38;11.00;;;7.47;;
14381;SDS011;7275;50.328;8.720;2022-12-17T10:22:24;11.33;;;8.10;;
14381;SDS011;7275;50.328;8.720;2022-12-17T10:25:13;9.60;;;6.97;;
14381;SDS011;7275;50.328;8.720;2022-12-17T10:28:00;10.93;;;7.90;;
14381;SDS011;7275;50.328;8.720;2022-12-17T10:30:48;10.13;;;7.17;;
14381;SDS011;7275;50.328;8.720;2022-12-17T10:33:35;10.60;;;6.87;;
14381;SDS011;7275;50.328;8.720;2022-12-17T10:36:30;9.83;;;6.87;;
14381;SDS011;7275;50.328;8.720;2022-12-17T10:39:17;9.37;;;6.70;;
14381;SDS011;7275;50.328;8.720;2022-12-17T10:42:16;11.50;;;7.83;;
14381;SDS011;7275;50.328;8.720;2022-12-17T10:45:20;12.23;;;8.30;;
14381;SDS011;7275;50.328;8.720;2022-12-17T10:48:21;10.33;;;7.60;;
14381;SDS011;7275;50.328;8.720;2022-12-17T10:51:16;11.07;;;8.03;;
14381;SDS011;7275;50.328;8.720;2022-12-17T10:54:05;9.67;;;6.83;;
14381;SDS011;7275;50.328;8.720;2022-12-17T10:57:00;10.13;;;7.30;;
14381;SDS011;7275;50.328;8.720;2022-12-17T10:59:45;10.50;;;7.17;;
14381;SDS011;7275;50.328;8.720;2022-12-17T11:02:30;10.67;;;7.57;;
14381;SDS011;7275;50.328;8.720;2022-12-17T11:05:21;10.87;;;7.40;;
14381;SDS011;7275;50.328;8.720;2022-12-17T11:08:10;12.03;;;7.83;;
14381;SDS011;7275;50.328;8.720;2022-12-17T11:10:58;11.23;;;7.43;;
14381;SDS011;7275;50.328;8.720;2022-12-17T11:13:47;10.50;;;7.33;;
14381;SDS011;7275;50.328;8.720;2022-12-17T11:16:35;10.60;;;7.80;;
14381;SDS011;7275;50.328;8.720;2022-12-17T11:19:27;11.37;;;7.60;;
14381;SDS011;7275;50.328;8.720;2022-12-17T11:22:28;9.00;;;6.57;;
14381;SDS011;7275;50.328;8.720;2022-12-17T11:25:23;12.10;;;7.27;;
14381;SDS011;7275;50.328;8.720;2022-12-17T11:28:14;11.47;;;7.40;;
14381;SDS011;7275;50.328;8.720;2022-12-17T11:34:19;8.83;;;6.53;;
14381;SDS011;7275;50.328;8.720;2022-12-17T11:37:14;12.13;;;8.50;;
14381;SDS011;7275;50.328;8.720;2022-12-17T11:40:13;12.43;;;8.57;;
14381;SDS011;7275;50.328;8.720;2022-12-17T11:43:09;11.20;;;7.73;;
14381;SDS011;7275;50.328;8.720;2022-12-17T11:46:02;11.80;;;7.90;;
14381;SDS011;7275;50.328;8.720;2022-12-17T11:48:57;10.17;;;7.60;;
14381;SDS011;7275;50.328;8.720;2022-12-17T11:51:55;14.57;;;8.83;;
14381;SDS011;7275;50.328;8.720;2022-12-17T11:54:47;12.17;;;8.40;;
14381;SDS011;7275;50.328;8.720;2022-12-17T11:57:41;11.23;;;7.73;;
14381;SDS011;7275;50.328;8.720;2022-12-17T12:00:35;13.90;;;8.60;;
14381;SDS011;7275;50.328;8.720;2022-12-17T12:03:29;14.23;;;9.40;;
14381;SDS011;7275;50.328;8.720;2022-12-17T12:06:22;13.03;;;8.93;;
14381;SDS011;7275;50.328;8.720;2022-12-17T12:09:16;11.83;;;8.33;;
14381;SDS011;7275;50.328;8.720;2022-12-17T12:12:09;14.77;;;7.93;;
14381;SDS011;7275;50.328;8.720;2022-12-17T12:15:10;11.53;;;7.77;;
14381;SDS011;7275;50.328;8.720;2022-12-17T12:18:06;12.10;;;7.80;;
14381;SDS011;7275;50.328;8.720;2022-12-17T12:21:02;12.17;;;8.33;;
14381;SDS011;7275;50.328;8.720;2022-12-17T12:23:58;13.50;;;8.70;;
14381;SDS011;7275;50.328;8.720;2022-12-17T12:26:57;12.60;;;8.50;;
14381;SDS011;7275;50.328;8.720;2022-12-17T12:29:53;13.90;;;9.23;;
14381;SDS011;7275;50.328;8.720;2022-12-17T12:32:48;14.97;;;9.40;;
14381;SDS011;7275;50.328;8.720;2022-12-17T12:35:41;11.97;;;8.20;;
14381;SDS011;7275;50.328;8.720;2022-12-17T12:38:27;12.07;;;8.00;;
14381;SDS011;7275;50.328;8.720;2022-12-17T12:41:17;12.20;;;8.23;;
14381;SDS011;7275;50.328;8.720;2022-12-17T12:44:11;12.93;;;8.83;;
14381;SDS011;7275;50.328;8.720;2022-12-17T12:47:05;13.17;;;9.00;;
14381;SDS011;7275;50.328;8.720;2022-12-17T12:49:57;16.33;;;9.83;;
14381;SDS011;7275;50.328;8.720;2022-12-17T12:52:48;14.47;;;9.23;;
14381;SDS011;7275;50.328;8.720;2022-12-17T12:55:35;14.37;;;9.60;;
14381;SDS011;7275;50.328;8.720;2022-12-17T12:58:23;14.37;;;9.43;;
14381;SDS011;7275;50.328;8.720;2022-12-17T13:01:10;13.73;;;9.23;;
14381;SDS011;7275;50.328;8.720;2022-12-17T13:03:56;16.30;;;10.23;;
14381;SDS011;7275;50.328;8.720;2022-12-17T13:06:45;14.50;;;9.93;;
14381;SDS011;7275;50.328;8.720;2022-12-17T13:09:17;12.60;;;9.43;;
14381;SDS011;7275;50.328;8.720;2022-12-17T13:11:47;17.53;;;11.07;;
14381;SDS011;7275;50.328;8.720;2022-12-17T13:14:17;16.90;;;10.20;;
14381;SDS011;7275;50.328;8.720;2022-12-17T13:16:50;16.93;;;10.93;;
14381;SDS011;7275;50.328;8.720;2022-12-17T13:19:30;19.37;;;11.93;;
14381;SDS011;7275;50.328;8.720;2022-12-17T13:22:22;14.73;;;9.43;;
14381;SDS011;7275;50.328;8.720;2022-12-17T13:24:54;15.40;;;10.17;;
14381;SDS011;7275;50.328;8.720;2022-12-17T13:27:35;14.30;;;9.80;;
14381;SDS011;7275;50.328;8.720;2022-12-17T13:35:54;16.30;;;10.53;;
14381;SDS011;7275;50.328;8.720;2022-12-17T13:38:34;15.97;;;10.27;;
14381;SDS011;7275;50.328;8.720;2022-12-17T13:41:12;15.70;;;10.43;;
14381;SDS011;7275;50.328;8.720;2022-12-17T13:43:42;16.50;;;10.63;;
14381;SDS011;7275;50.328;8.720;2022-12-17T13:46:16;16.87;;;10.90;;
14381;SDS011;7275;50.328;8.720;2022-12-17T13:48:50;24.73;;;17.77;;
14381;SDS011;7275;50.328;8.720;2022-12-17T13:51:19;25.23;;;17.13;;
14381;SDS011;7275;50.328;8.720;2022-12-17T13:53:53;19.83;;;13.73;;
14381;SDS011;7275;50.328;8.720;2022-12-17T13:56:23;17.87;;;11.80;;
14381;SDS011;7275;50.328;8.720;2022-12-17T13:58:53;14.83;;;9.30;;
14381;SDS011;7275;50.328;8.720;2022-12-17T14:01:22;14.67;;;9.80;;
14381;SDS011;7275;50.328;8.720;2022-12-17T14:03:55;16.40;;;10.83;;
14381;SDS011;7275;50.328;8.720;2022-12-17T14:06:33;12.13;;;8.20;;
14381;SDS011;7275;50.328;8.720;2022-12-17T14:09:03;16.60;;;11.27;;
14381;SDS011;7275;50.328;8.720;2022-12-17T14:11:32;14.93;;;10.17;;
14381;SDS011;7275;50.328;8.720;2022-12-17T14:14:19;15.70;;;9.77;;
14381;SDS011;7275;50.328;8.720;2022-12-17T14:16:53;15.27;;;9.43;;
14381;SDS011;7275;50.328;8.720;2022-12-17T14:19:21;15.50;;;9.73;;
14381;SDS011;7275;50.328;8.720;2022-12-17T14:21:49;17.53;;;10.57;;
14381;SDS011;7275;50.328;8.720;2022-12-17T14:24:19;17.33;;;10.77;;
14381;SDS011;7275;50.328;8.720;2022-12-17T14:26:53;16.30;;;9.60;;
14381;SDS011;7275;50.328;8.720;2022-12-17T14:29:21;13.90;;;8.63;;
14381;SDS011;7275;50.328;8.720;2022-12-17T14:31:50;16.40;;;10.77;;
14381;SDS011;7275;50.328;8.720;2022-12-17T14:34:19;16.07;;;10.30;;
14381;SDS011;7275;50.328;8.720;2022-12-17T14:36:51;14.20;;;9.57;;
14381;SDS011;7275;50.328;8.720;2022-12-17T14:39:21;16.27;;;9.73;;
14381;SDS011;7275;50.328;8.720;2022-12-17T14:41:51;14.33;;;10.10;;
14381;SDS011;7275;50.328;8.720;2022-12-17T14:44:40;15.73;;;9.90;;
14381;SDS011;7275;50.328;8.720;2022-12-17T14:47:17;19.47;;;10.03;;
14381;SDS011;7275;50.328;8.720;2022-12-17T14:49:54;18.70;;;10.07;;
14381;SDS011;7275;50.328;8.720;2022-12-17T14:52:26;17.53;;;10.70;;
14381;SDS011;7275;50.328;8.720;2022-12-17T14:55:00;15.83;;;9.73;;
14381;SDS011;7275;50.328;8.720;2022-12-17T14:57:47;15.43;;;9.47;;
14381;SDS011;7275;50.328;8.720;2022-12-17T15:00:15;17.07;;;10.80;;
14381;SDS011;7275;50.328;8.720;2022-12-17T15:02:43;17.27;;;10.30;;
14381;SDS011;7275;50.328;8.720;2022-12-17T15:05:16;14.27;;;8.83;;
14381;SDS011;7275;50.328;8.720;2022-12-17T15:07:44;15.90;;;10.13;;
14381;SDS011;7275;50.328;8.720;2022-12-17T15:10:15;16.97;;;9.80;;
14381;SDS011;7275;50.328;8.720;2022-12-17T15:12:45;15.63;;;9.90;;
14381;SDS011;7275;50.328;8.720;2022-12-17T15:15:14;15.97;;;10.13;;
14381;SDS011;7275;50.328;8.720;2022-12-17T15:17:42;14.90;;;9.83;;
14381;SDS011;7275;50.328;8.720;2022-12-17T15:20:11;14.63;;;9.60;;
14381;SDS011;7275;50.328;8.720;2022-12-17T15:22:42;16.87;;;9.63;;
14381;SDS011;7275;50.328;8.720;2022-12-17T15:25:10;19.93;;;11.13;;
14381;SDS011;7275;50.328;8.720;2022-12-17T15:27:40;15.00;;;9.53;;
14381;SDS011;7275;50.328;8.720;2022-12-17T15:30:08;17.17;;;10.00;;
14381;SDS011;7275;50.328;8.720;2022-12-17T15:32:40;16.40;;;9.50;;
14381;SDS011;7275;50.328;8.720;2022-12-17T15:35:07;14.30;;;9.87;;
14381;SDS011;7275;50.328;8.720;2022-12-17T15:37:37;16.10;;;10.10;;
14381;SDS011;7275;50.328;8.720;2022-12-17T15:40:05;14.93;;;9.87;;
14381;SDS011;7275;50.328;8.720;2022-12-17T15:42:37;14.63;;;9.50;;
14381;SDS011;7275;50.328;8.720;2022-12-17T15:45:28;20.93;;;9.90;;
14381;SDS011;7275;50.328;8.720;2022-12-17T15:47:56;18.70;;;10.00;;
14381;SDS011;7275;50.328;8.720;2022-12-17T15:50:24;16.90;;;10.10;;
14381;SDS011;7275;50.328;8.720;2022-12-17T15:52:51;17.10;;;10.53;;
14381;SDS011;7275;50.328;8.720;2022-12-17T15:55:19;15.30;;;10.43;;
14381;SDS011;7275;50.328;8.720;2022-12-17T15:57:48;17.57;;;10.87;;
14381;SDS011;7275;50.328;8.720;2022-12-17T16:00:15;20.20;;;10.47;;
14381;SDS011;7275;50.328;8.720;2022-12-17T16:02:43;21.67;;;10.47;;
14381;SDS011;7275;50.328;8.720;2022-12-17T16:05:11;22.77;;;9.43;;
14381;SDS011;7275;50.328;8.720;2022-12-17T16:07:38;17.17;;;10.33;;
14381;SDS011;7275;50.328;8.720;2022-12-17T16:10:08;15.40;;;9.43;;
14381;SDS011;7275;50.328;8.720;2022-12-17T16:12:37;16.53;;;10.10;;
14381;SDS011;7275;50.328;8.720;2022-12-17T16:15:07;21.43;;;9.87;;
14381;SDS011;7275;50.328;8.720;2022-12-17T16:17:36;18.23;;;10.33;;
14381;SDS011;7275;50.328;8.720;2022-12-17T16:20:04;22.17;;;11.00;;
14381;SDS011;7275;50.328;8.720;2022-12-17T16:22:32;22.17;;;10.60;;
14381;SDS011;7275;50.328;8.720;2022-12-17T16:24:59;16.57;;;10.60;;
14381;SDS011;7275;50.328;8.720;2022-12-17T16:27:27;24.43;;;10.07;;
14381;SDS011;7275;50.328;8.720;2022-12-17T16:29:54;21.43;;;10.83;;
14381;SDS011;7275;50.328;8.720;2022-12-17T16:32:23;23.00;;;11.63;;
14381;SDS011;7275;50.328;8.720;2022-12-17T16:34:51;14.83;;;9.97;;
14381;SDS011;7275;50.328;8.720;2022-12-17T16:37:18;22.13;;;13.17;;
14381;SDS011;7275;50.328;8.720;2022-12-17T16:39:46;20.90;;;11.87;;
14381;SDS011;7275;50.328;8.720;2022-12-17T16:42:24;20.47;;;12.50;;
14381;SDS011;7275;50.328;8.720;2022-12-17T16:44:52;19.63;;;12.00;;
14381;SDS011;7275;50.328;8.720;2022-12-17T16:47:19;20.77;;;10.77;;
14381;SDS011;7275;50.328;8.720;2022-12-17T16:49:48;15.83;;;9.90;;